Chiricahua National Monument, Arizona
Current Conditions -  °F | °C
As of 6:51 PM on Thursday 18 Dec 2014 (Local Time) from KSAD Reporting Station
Overcast Overcast  
Wind Chill: 42°   Ceiling: 9000
Heat Index: 46°   Visibility: 10mi
Dew Point: 43°   Wind: 7mph
Humidity: 89%   Direction: 290°WNW
Pressure: 30.13"   Gusts: NA
Location:  32.5598°N, 110.08°W
Report Text: KSAD 190151Z AUTO 29006KT 10SM OVC090 08/06 A3013 RMK AO2 SLP194 T00780061
Loading
Personal Weather Stations






























Interactive Weather Map New forecast layout! Learn more

10-Day Weather Forecast

Advertisements
Track Severe Weather on mobile